createdAt,value
2022-12-05T00:02:21.549Z,50.43
2022-12-05T00:04:47.835Z,32.77
2022-12-05T00:07:14.127Z,36.63
2022-12-05T00:09:40.421Z,31.37
2022-12-05T00:12:06.718Z,30.93
2022-12-05T00:14:32.985Z,36.57
2022-12-05T00:16:59.291Z,28.13
2022-12-05T00:19:25.623Z,32.73
2022-12-05T00:21:51.929Z,34.37
2022-12-05T00:24:19.477Z,27.23
2022-12-05T00:26:45.809Z,34.37
2022-12-05T00:29:12.122Z,31.30
2022-12-05T00:31:38.960Z,28.97
2022-12-05T00:34:05.494Z,30.53
2022-12-05T00:36:33.123Z,32.03
2022-12-05T00:39:01.253Z,37.77
2022-12-05T00:41:28.264Z,29.27
2022-12-05T00:43:55.228Z,36.80
2022-12-05T00:46:23.902Z,34.23
2022-12-05T00:48:52.097Z,36.07
2022-12-05T00:51:20.780Z,29.80
2022-12-05T00:53:47.115Z,30.47
2022-12-05T00:56:14.903Z,31.33
2022-12-05T00:58:41.203Z,26.97
2022-12-05T01:01:07.648Z,33.47
2022-12-05T01:03:34.139Z,25.63
2022-12-05T01:06:00.912Z,28.43
2022-12-05T01:08:27.721Z,29.60
2022-12-05T01:10:57.495Z,24.97
2022-12-05T01:13:24.413Z,29.73
2022-12-05T01:15:50.736Z,32.67
2022-12-05T01:18:17.726Z,28.73
2022-12-05T01:20:44.522Z,36.37
2022-12-05T01:23:11.231Z,34.97
2022-12-05T01:25:41.410Z,30.37
2022-12-05T01:28:07.931Z,26.83
2022-12-05T01:30:37.470Z,27.83
2022-12-05T01:33:03.875Z,25.13
2022-12-05T01:35:31.523Z,33.40
2022-12-05T01:37:57.809Z,27.00
2022-12-05T01:40:24.403Z,28.87
2022-12-05T01:42:50.717Z,28.03
2022-12-05T01:45:18.585Z,31.60
2022-12-05T01:47:45.123Z,27.87
2022-12-05T01:50:12.342Z,23.70
2022-12-05T01:52:39.134Z,29.80
2022-12-05T01:55:12.838Z,21.57
2022-12-05T01:57:39.369Z,30.47
2022-12-05T02:00:10.052Z,31.47
2022-12-05T02:02:36.544Z,25.37
2022-12-05T02:05:06.494Z,28.13
2022-12-05T02:07:33.636Z,24.67
2022-12-05T02:10:00.189Z,32.90
2022-12-05T02:12:26.636Z,26.17
2022-12-05T02:14:55.902Z,33.93
2022-12-05T02:17:39.163Z,22.93
2022-12-05T02:20:20.410Z,31.43
2022-12-05T02:22:52.617Z,34.53
2022-12-05T02:25:18.881Z,29.47
2022-12-05T02:27:51.286Z,29.43
2022-12-05T02:30:19.206Z,38.33
2022-12-05T02:33:04.689Z,27.00
2022-12-05T02:35:30.943Z,32.25
2022-12-05T02:38:09.057Z,22.70
2022-12-05T02:40:44.946Z,35.67
2022-12-05T02:43:14.456Z,26.50
2022-12-05T02:45:42.212Z,29.50
2022-12-05T02:48:09.443Z,24.23
2022-12-05T02:50:37.757Z,32.40
2022-12-05T02:53:06.560Z,35.13
2022-12-05T02:55:33.510Z,27.10
2022-12-05T02:58:01.988Z,33.97
2022-12-05T03:00:28.247Z,36.50
2022-12-05T03:02:57.274Z,33.27
2022-12-05T03:05:41.006Z,34.20
2022-12-05T03:08:10.665Z,32.03
2022-12-05T03:10:38.970Z,33.70
2022-12-05T03:13:07.826Z,36.17
2022-12-05T03:15:37.242Z,28.47
2022-12-05T03:18:06.673Z,26.50
2022-12-05T03:20:38.684Z,32.37
2022-12-05T03:23:11.948Z,27.23
2022-12-05T03:25:50.267Z,32.17
2022-12-05T03:28:45.860Z,29.30
2022-12-05T03:31:13.945Z,27.38
2022-12-05T03:33:42.380Z,34.40
2022-12-05T03:36:13.919Z,30.27
2022-12-05T03:38:44.680Z,32.57
2022-12-05T03:41:16.987Z,28.10
2022-12-05T03:43:46.008Z,35.17
2022-12-05T03:46:18.909Z,31.00
2022-12-05T03:48:54.714Z,32.73
2022-12-05T03:51:22.734Z,28.87
2022-12-05T03:53:51.395Z,33.13
2022-12-05T03:56:24.409Z,26.63
2022-12-05T03:58:59.530Z,27.50
2022-12-05T04:03:57.933Z,30.37
2022-12-05T04:06:24.255Z,32.67
2022-12-05T04:09:12.466Z,31.87
2022-12-05T04:11:45.354Z,28.57
2022-12-05T04:14:13.925Z,24.33
2022-12-05T04:17:04.478Z,25.40
2022-12-05T04:19:53.503Z,24.47
2022-12-05T04:22:20.249Z,28.03
2022-12-05T04:25:05.482Z,33.17
2022-12-05T04:27:31.719Z,31.20
2022-12-05T04:30:03.094Z,29.23
2022-12-05T04:32:32.100Z,24.07
2022-12-05T04:34:59.722Z,30.03
2022-12-05T04:37:27.152Z,31.87
2022-12-05T04:39:57.715Z,30.13
2022-12-05T04:42:26.219Z,32.63
2022-12-05T04:45:10.148Z,33.67
2022-12-05T04:47:39.260Z,31.43
2022-12-05T04:50:07.830Z,30.30
2022-12-05T04:52:34.794Z,24.33
2022-12-05T04:55:04.022Z,25.17
2022-12-05T04:57:53.017Z,24.23
2022-12-05T05:00:19.391Z,27.63
2022-12-05T05:02:48.043Z,30.57
2022-12-05T05:05:16.250Z,32.30
2022-12-05T05:07:46.749Z,33.97
2022-12-05T05:10:14.878Z,31.73
2022-12-05T05:12:41.169Z,28.43
2022-12-05T05:15:08.115Z,29.30
2022-12-05T05:17:34.377Z,33.80
2022-12-05T05:20:20.106Z,27.20
2022-12-05T05:22:48.099Z,23.00
2022-12-05T05:25:14.452Z,28.43
2022-12-05T05:27:40.717Z,28.17
2022-12-05T05:30:07.362Z,27.17
2022-12-05T05:32:33.634Z,31.20
2022-12-05T05:35:00.108Z,31.53
2022-12-05T05:37:26.489Z,27.97
2022-12-05T05:39:52.770Z,23.53
2022-12-05T05:42:19.022Z,29.17
2022-12-05T05:44:45.309Z,22.73
2022-12-05T05:47:11.587Z,27.87
2022-12-05T05:49:38.022Z,26.60
2022-12-05T05:52:04.447Z,21.97
2022-12-05T05:54:30.728Z,24.47
2022-12-05T05:56:56.997Z,25.87
2022-12-05T05:59:23.235Z,23.13
2022-12-05T06:01:49.502Z,26.60
2022-12-05T06:04:15.799Z,29.30
2022-12-05T06:06:42.134Z,34.50
2022-12-05T06:09:08.427Z,28.27
2022-12-05T06:11:34.680Z,30.07
2022-12-05T06:14:03.830Z,22.20
2022-12-05T06:16:31.479Z,20.83
2022-12-05T06:18:58.237Z,25.77
2022-12-05T06:21:24.532Z,33.57
2022-12-05T06:23:51.124Z,20.77
2022-12-05T06:26:18.681Z,25.93
2022-12-05T06:28:45.080Z,30.10
2022-12-05T06:31:12.913Z,26.67
2022-12-05T06:33:39.511Z,23.20
2022-12-05T06:36:07.330Z,30.90
2022-12-05T06:38:36.829Z,31.47
2022-12-05T06:41:06.140Z,24.60
2022-12-05T06:43:32.487Z,25.17
2022-12-05T06:45:58.863Z,30.37
2022-12-05T06:48:25.312Z,26.63
2022-12-05T06:50:52.320Z,35.60
2022-12-05T06:53:21.741Z,25.37
2022-12-05T06:56:01.064Z,27.73
2022-12-05T06:58:27.700Z,30.43
2022-12-05T07:01:12.573Z,33.03
2022-12-05T07:03:39.139Z,26.45
2022-12-05T07:06:06.226Z,21.17
2022-12-05T07:08:32.765Z,23.70
2022-12-05T07:10:59.147Z,26.20
2022-12-05T07:13:25.455Z,24.40
2022-12-05T07:15:52.078Z,25.00
2022-12-05T07:18:18.363Z,24.17
2022-12-05T07:21:10.811Z,26.03
2022-12-05T07:23:31.007Z,13.70
2022-12-05T07:25:57.773Z,21.37
2022-12-05T07:28:24.374Z,18.07
2022-12-05T07:30:59.142Z,17.80
2022-12-05T07:33:25.390Z,20.17
2022-12-05T07:35:51.641Z,15.70
2022-12-05T07:38:17.891Z,18.67
2022-12-05T07:40:44.141Z,20.77
2022-12-05T07:43:10.516Z,26.03
2022-12-05T07:45:36.850Z,18.60
2022-12-05T07:48:03.315Z,19.53
2022-12-05T07:50:29.618Z,19.50
2022-12-05T07:52:55.890Z,20.80
2022-12-05T07:55:22.174Z,19.20
2022-12-05T07:57:48.429Z,21.43
2022-12-05T08:00:14.943Z,16.73
2022-12-05T08:02:41.392Z,18.83
2022-12-05T08:05:08.134Z,17.23
2022-12-05T08:07:34.459Z,20.93
2022-12-05T08:10:00.934Z,20.43
2022-12-05T08:12:27.275Z,17.93
2022-12-05T08:14:53.530Z,18.83
2022-12-05T08:17:19.797Z,15.80
2022-12-05T08:19:46.067Z,23.93
2022-12-05T08:22:12.517Z,16.70
2022-12-05T08:24:39.094Z,24.27
2022-12-05T08:27:05.694Z,17.27
2022-12-05T08:29:32.142Z,21.00
2022-12-05T08:31:58.698Z,17.43
2022-12-05T08:34:25.010Z,17.80
2022-12-05T08:36:51.261Z,20.20
2022-12-05T08:39:18.501Z,17.00
2022-12-05T08:41:45.552Z,17.73
2022-12-05T08:44:16.083Z,16.63
2022-12-05T08:46:43.256Z,16.50
2022-12-05T08:49:10.747Z,20.03
2022-12-05T08:51:37.070Z,21.93
2022-12-05T08:54:04.160Z,16.17
2022-12-05T08:56:30.457Z,17.03
2022-12-05T08:59:04.488Z,17.67
2022-12-05T09:01:32.615Z,19.60
2022-12-05T09:04:00.532Z,17.80
2022-12-05T09:06:27.494Z,15.50
2022-12-05T09:08:58.106Z,14.60
2022-12-05T09:11:26.113Z,19.00
2022-12-05T09:13:53.751Z,17.13
2022-12-05T09:16:21.529Z,18.10
2022-12-05T09:18:48.304Z,17.93
2022-12-05T09:21:16.581Z,15.50
2022-12-05T09:23:43.226Z,13.93
2022-12-05T09:26:11.788Z,15.90
2022-12-05T09:28:38.870Z,13.87
2022-12-05T09:31:06.661Z,16.97
2022-12-05T09:33:34.120Z,15.67
2022-12-05T09:36:12.232Z,14.93
2022-12-05T09:38:38.488Z,14.50
2022-12-05T09:41:16.773Z,19.83
2022-12-05T09:44:02.333Z,18.47
2022-12-05T09:49:02.544Z,13.53
2022-12-05T09:51:28.852Z,16.80
2022-12-05T09:53:55.303Z,16.27
2022-12-05T09:56:25.737Z,16.30
2022-12-05T09:58:52.929Z,15.17
2022-12-05T10:01:45.707Z,15.03
2022-12-05T10:04:29.319Z,13.27
2022-12-05T10:07:01.752Z,13.83
2022-12-05T10:09:28.078Z,13.27
2022-12-05T10:12:03.185Z,14.37
2022-12-05T10:14:32.219Z,13.25
2022-12-05T10:17:02.905Z,13.83
2022-12-05T10:19:32.049Z,14.87
2022-12-05T10:22:02.316Z,15.33
2022-12-05T10:24:37.829Z,11.70
2022-12-05T10:27:06.066Z,18.10
2022-12-05T10:29:35.362Z,17.63
2022-12-05T10:32:13.341Z,15.53
2022-12-05T10:34:41.201Z,12.93
2022-12-05T10:37:16.285Z,11.43
2022-12-05T10:39:43.038Z,13.07
2022-12-05T10:42:13.673Z,11.67
2022-12-05T10:44:40.157Z,13.77
2022-12-05T10:47:06.616Z,10.70
2022-12-05T10:49:34.141Z,10.80
2022-12-05T10:52:00.656Z,13.57
2022-12-05T10:54:30.210Z,9.80
2022-12-05T10:56:56.799Z,11.10
2022-12-05T10:59:24.470Z,12.73
2022-12-05T11:01:53.164Z,8.77
2022-12-05T11:04:26.178Z,8.80
2022-12-05T11:06:56.273Z,10.70
2022-12-05T11:09:33.122Z,7.73
2022-12-05T11:12:05.751Z,9.23
2022-12-05T11:14:34.285Z,8.40
2022-12-05T11:17:01.296Z,8.13
2022-12-05T11:19:27.729Z,10.27
2022-12-05T11:21:54.861Z,10.23
2022-12-05T11:24:33.116Z,9.23
2022-12-05T11:27:01.041Z,14.13
2022-12-05T11:29:35.328Z,17.53
2022-12-05T11:32:02.581Z,13.45
2022-12-05T11:34:36.769Z,14.23
2022-12-05T11:37:06.431Z,12.70
2022-12-05T11:39:33.075Z,9.87
2022-12-05T11:42:18.917Z,10.00
2022-12-05T11:44:54.475Z,9.40
2022-12-05T11:47:20.724Z,8.00
2022-12-05T11:50:05.924Z,11.73
2022-12-05T11:52:41.278Z,10.90
2022-12-05T11:55:07.529Z,11.57
2022-12-05T11:57:40.979Z,13.10
2022-12-05T12:00:21.756Z,8.60
2022-12-05T12:02:54.167Z,10.73
2022-12-05T12:05:39.013Z,13.57
2022-12-05T12:08:08.285Z,12.25
2022-12-05T12:10:48.580Z,12.67
2022-12-05T12:13:33.857Z,9.80
2022-12-05T12:16:08.948Z,11.77
2022-12-05T12:18:54.331Z,9.25
2022-12-05T12:21:38.709Z,12.55
2022-12-05T12:24:16.849Z,10.90
2022-12-05T12:26:53.353Z,9.77
2022-12-05T12:29:34.114Z,10.47
2022-12-05T12:32:19.660Z,7.23
2022-12-05T12:34:49.523Z,9.38
2022-12-05T12:37:21.458Z,9.13
2022-12-05T12:40:02.868Z,11.50
2022-12-05T12:42:35.898Z,13.73
2022-12-05T12:45:02.378Z,10.70
2022-12-05T12:47:39.970Z,8.47
2022-12-05T12:50:06.255Z,12.40
2022-12-05T12:52:52.939Z,11.17
2022-12-05T12:55:24.794Z,12.80
2022-12-05T12:58:06.510Z,12.37
2022-12-05T13:00:51.442Z,8.43
2022-12-05T13:03:21.192Z,9.85
2022-12-05T13:05:49.582Z,8.57
2022-12-05T13:08:19.447Z,10.97
2022-12-05T13:10:46.726Z,11.07
2022-12-05T13:13:14.614Z,10.27
2022-12-05T13:15:44.558Z,9.83
2022-12-05T13:18:14.542Z,12.97
2022-12-05T13:20:40.953Z,8.87
2022-12-05T13:23:09.112Z,11.20
2022-12-05T13:25:36.589Z,8.13
2022-12-05T13:28:04.048Z,8.40
2022-12-05T13:30:31.088Z,10.57
2022-12-05T13:32:58.379Z,13.00
2022-12-05T13:35:51.041Z,11.40
2022-12-05T13:38:46.797Z,10.87
2022-12-05T13:41:32.074Z,9.55
2022-12-05T13:44:06.307Z,7.90
2022-12-05T13:46:34.812Z,10.45
2022-12-05T13:49:07.432Z,13.60
2022-12-05T13:51:36.982Z,12.37
2022-12-05T13:54:23.500Z,15.60
2022-12-05T13:56:49.766Z,13.07
2022-12-05T13:59:34.654Z,13.83
2022-12-05T14:02:01.123Z,13.15
2022-12-05T14:04:50.913Z,13.03
2022-12-05T14:07:46.916Z,10.33
2022-12-05T14:10:16.705Z,10.35
2022-12-05T14:12:45.898Z,12.50
2022-12-05T14:15:26.137Z,11.47
2022-12-05T14:18:01.401Z,9.47
2022-12-05T14:22:56.918Z,13.00
2022-12-05T14:25:29.687Z,12.80
2022-12-05T14:27:59.954Z,10.70
2022-12-05T14:30:34.959Z,13.97
2022-12-05T14:33:01.807Z,10.13
2022-12-05T14:35:40.226Z,16.57
2022-12-05T14:38:07.112Z,12.20
2022-12-05T14:40:33.421Z,11.10
2022-12-05T14:43:17.977Z,10.53
2022-12-05T14:45:53.352Z,10.07
2022-12-05T14:48:19.641Z,11.37
2022-12-05T14:50:47.139Z,13.13
2022-12-05T14:53:30.163Z,12.37
2022-12-05T14:56:02.164Z,14.87
2022-12-05T14:58:32.613Z,11.90
2022-12-05T15:01:06.425Z,11.30
2022-12-05T15:03:35.192Z,10.57
2022-12-05T15:06:04.170Z,14.40
2022-12-05T15:08:32.332Z,13.20
2022-12-05T15:10:58.817Z,10.70
2022-12-05T15:13:28.368Z,13.27
2022-12-05T15:15:58.461Z,9.83
2022-12-05T15:18:27.437Z,11.03
2022-12-05T15:21:03.006Z,10.60
2022-12-05T15:23:39.516Z,13.17
2022-12-05T15:26:45.022Z,12.53
2022-12-05T15:29:01.195Z,13.75
2022-12-05T15:31:28.799Z,13.40
2022-12-05T15:33:57.167Z,10.90
2022-12-05T15:36:25.321Z,11.03
2022-12-05T15:38:54.001Z,12.83
2022-12-05T15:41:20.294Z,13.03
2022-12-05T15:43:56.510Z,11.00
2022-12-05T15:46:24.320Z,11.20
2022-12-05T15:48:51.873Z,11.87
2022-12-05T15:51:18.664Z,14.27
2022-12-05T15:53:48.189Z,10.40
2022-12-05T15:56:20.627Z,12.77
2022-12-05T15:58:59.285Z,11.93
2022-12-05T16:01:26.123Z,10.97
2022-12-05T16:03:54.327Z,11.00
2022-12-05T16:06:23.614Z,10.27
2022-12-05T16:08:50.967Z,10.10
2022-12-05T16:11:17.869Z,8.37
2022-12-05T16:13:45.975Z,11.87
2022-12-05T16:16:17.094Z,7.93
2022-12-05T16:18:48.601Z,10.13
2022-12-05T16:21:37.987Z,6.93
2022-12-05T16:24:15.601Z,5.73
2022-12-05T16:26:41.973Z,6.77
2022-12-05T16:29:24.470Z,8.40
2022-12-05T16:31:53.899Z,6.90
2022-12-05T16:34:20.316Z,5.63
2022-12-05T16:36:47.440Z,6.33
2022-12-05T16:39:19.176Z,6.03
2022-12-05T16:41:46.388Z,6.37
2022-12-05T16:44:32.911Z,6.03
2022-12-05T16:46:59.219Z,5.87
2022-12-05T16:49:33.332Z,7.13
2022-12-05T16:52:01.474Z,6.30
2022-12-05T16:54:27.882Z,6.67
2022-12-05T16:56:54.296Z,7.13
2022-12-05T16:59:22.586Z,8.13
2022-12-05T17:01:49.162Z,7.03
2022-12-05T17:04:15.852Z,9.13
2022-12-05T17:06:42.163Z,7.53
2022-12-05T17:09:08.421Z,6.27
2022-12-05T17:11:36.964Z,9.03
2022-12-05T17:14:03.504Z,7.77
2022-12-05T17:16:29.909Z,7.03
2022-12-05T17:18:56.333Z,8.73
2022-12-05T17:21:24.232Z,8.40
2022-12-05T17:23:50.636Z,6.67
2022-12-05T17:26:18.178Z,6.47
2022-12-05T17:28:44.807Z,6.23
2022-12-05T17:31:16.694Z,8.53
2022-12-05T17:33:43.474Z,8.33
2022-12-05T17:36:09.930Z,7.17
2022-12-05T17:38:36.288Z,8.17
2022-12-05T17:41:06.711Z,7.73
2022-12-05T17:43:33.463Z,8.00
2022-12-05T17:46:00.417Z,6.23
2022-12-05T17:48:26.713Z,7.27
2022-12-05T17:50:53.056Z,7.10
2022-12-05T17:53:20.429Z,12.43
2022-12-05T17:55:50.018Z,6.80
2022-12-05T17:58:16.826Z,8.63
2022-12-05T18:00:44.116Z,10.50
2022-12-05T18:03:16.051Z,7.33
2022-12-05T18:05:42.467Z,8.33
2022-12-05T18:08:08.980Z,12.20
2022-12-05T18:10:35.337Z,8.27
2022-12-05T18:13:01.717Z,9.00
2022-12-05T18:15:28.014Z,7.43
2022-12-05T18:17:55.545Z,10.60
2022-12-05T18:20:21.859Z,7.33
2022-12-05T18:22:48.676Z,15.33
2022-12-05T18:25:14.978Z,8.27
2022-12-05T18:27:41.262Z,7.23
2022-12-05T18:30:08.185Z,7.03
2022-12-05T18:32:34.508Z,7.77
2022-12-05T18:35:02.145Z,71.97
2022-12-05T18:37:29.066Z,38.50
2022-12-05T18:39:56.347Z,19.30
2022-12-05T18:42:22.716Z,9.07
2022-12-05T18:44:49.465Z,8.13
2022-12-05T18:47:15.837Z,5.83
2022-12-05T18:49:42.422Z,12.17
2022-12-05T18:52:08.687Z,7.33
2022-12-05T18:54:35.034Z,9.27
2022-12-05T18:57:01.345Z,8.13
2022-12-05T18:59:28.860Z,10.27
2022-12-05T19:01:55.624Z,7.50
2022-12-05T19:04:21.998Z,8.07
2022-12-05T19:06:49.857Z,7.90
2022-12-05T19:09:17.652Z,10.93
2022-12-05T19:11:47.604Z,7.90
2022-12-05T19:14:14.895Z,8.67
2022-12-05T19:16:41.243Z,13.17
2022-12-05T19:19:08.952Z,7.80
2022-12-05T19:21:35.653Z,8.10
2022-12-05T19:24:04.703Z,13.23
2022-12-05T19:26:31.256Z,7.60
2022-12-05T19:28:57.791Z,50.00
2022-12-05T19:31:25.400Z,17.60
2022-12-05T19:33:53.271Z,17.23
2022-12-05T19:36:23.831Z,8.87
2022-12-05T19:38:51.226Z,7.53
2022-12-05T19:41:19.766Z,6.73
2022-12-05T19:43:46.129Z,8.93
2022-12-05T19:46:14.443Z,8.27
2022-12-05T19:48:40.904Z,8.67
2022-12-05T19:51:07.452Z,7.70
2022-12-05T19:53:34.730Z,7.77
2022-12-05T19:56:12.895Z,8.13
2022-12-05T19:58:39.489Z,8.07
2022-12-05T20:01:13.613Z,8.80
2022-12-05T20:03:40.602Z,7.97
2022-12-05T20:06:07.772Z,8.67
2022-12-05T20:08:34.705Z,7.33
2022-12-05T20:11:04.902Z,10.97
2022-12-05T20:13:46.458Z,7.97
2022-12-05T20:16:14.666Z,7.00
2022-12-05T20:18:41.390Z,7.47
2022-12-05T20:21:08.882Z,7.80
2022-12-05T20:23:35.487Z,8.93
2022-12-05T20:26:06.002Z,8.83
2022-12-05T20:28:32.684Z,6.80
2022-12-05T20:31:06.140Z,8.50
2022-12-05T20:33:32.668Z,7.47
2022-12-05T20:36:02.931Z,7.23
2022-12-05T20:38:29.256Z,8.20
2022-12-05T20:40:59.416Z,8.07
2022-12-05T20:43:25.823Z,9.80
2022-12-05T20:45:52.203Z,8.43
2022-12-05T20:48:18.555Z,7.57
2022-12-05T20:50:44.832Z,7.63
2022-12-05T20:53:11.190Z,7.37
2022-12-05T20:55:37.648Z,8.10
2022-12-05T20:58:05.371Z,8.43
2022-12-05T21:00:31.739Z,12.00
2022-12-05T21:02:58.090Z,8.20
2022-12-05T21:05:24.458Z,8.63
2022-12-05T21:07:50.731Z,12.97
2022-12-05T21:10:17.093Z,7.80
2022-12-05T21:12:43.342Z,8.10
2022-12-05T21:15:10.013Z,10.33
2022-12-05T21:17:36.304Z,10.43
2022-12-05T21:20:02.740Z,8.33
2022-12-05T21:22:29.148Z,11.07
2022-12-05T21:24:55.420Z,8.63
2022-12-05T21:27:21.830Z,10.83
2022-12-05T21:29:48.135Z,9.17
2022-12-05T21:32:14.404Z,7.90
2022-12-05T21:34:40.681Z,9.27
2022-12-05T21:37:06.947Z,8.73
2022-12-05T21:39:33.219Z,9.77
2022-12-05T21:41:59.973Z,8.73
2022-12-05T21:44:26.276Z,7.53
2022-12-05T21:46:53.327Z,10.30
2022-12-05T21:49:19.651Z,9.43
2022-12-05T21:51:45.930Z,7.73
2022-12-05T21:54:12.189Z,8.23
2022-12-05T21:56:38.966Z,7.27
2022-12-05T21:59:05.243Z,8.30
2022-12-05T22:01:31.793Z,8.77
2022-12-05T22:04:01.906Z,7.73
2022-12-05T22:06:29.854Z,7.33
2022-12-05T22:08:56.179Z,6.83
2022-12-05T22:11:23.475Z,7.27
2022-12-05T22:13:49.868Z,7.63
2022-12-05T22:16:16.396Z,11.40
2022-12-05T22:18:42.721Z,7.13
2022-12-05T22:21:13.479Z,7.13
2022-12-05T22:23:39.987Z,7.10
2022-12-05T22:26:07.750Z,10.73
2022-12-05T22:28:34.981Z,6.33
2022-12-05T22:31:02.228Z,7.40
2022-12-05T22:33:28.583Z,6.33
2022-12-05T22:35:59.343Z,9.43
2022-12-05T22:38:26.460Z,8.17
2022-12-05T22:40:53.497Z,17.67
2022-12-05T22:43:19.754Z,7.27
2022-12-05T22:45:46.011Z,7.70
2022-12-05T22:48:12.284Z,7.53
2022-12-05T22:50:38.539Z,8.07
2022-12-05T22:53:04.787Z,7.43
2022-12-05T22:55:31.429Z,8.23
2022-12-05T22:57:57.689Z,8.97
2022-12-05T23:00:23.969Z,7.23
2022-12-05T23:02:50.302Z,9.00
2022-12-05T23:05:16.616Z,6.03
2022-12-05T23:07:42.990Z,7.93
2022-12-05T23:10:09.390Z,6.47
2022-12-05T23:12:35.717Z,9.73
2022-12-05T23:15:02.101Z,7.20
2022-12-05T23:17:28.401Z,11.57
2022-12-05T23:19:54.705Z,7.10
2022-12-05T23:22:21.002Z,11.07
2022-12-05T23:24:47.337Z,7.33
2022-12-05T23:27:13.646Z,6.67
2022-12-05T23:29:39.975Z,8.77
2022-12-05T23:32:06.273Z,7.10
2022-12-05T23:34:32.707Z,9.47
2022-12-05T23:36:58.984Z,6.20
2022-12-05T23:39:25.274Z,10.97
2022-12-05T23:41:51.782Z,8.07
2022-12-05T23:44:18.096Z,7.70
2022-12-05T23:46:44.442Z,8.00
2022-12-05T23:49:10.974Z,8.33
2022-12-05T23:51:40.142Z,6.60
2022-12-05T23:54:08.801Z,7.50
2022-12-05T23:56:35.355Z,12.37
2022-12-05T23:59:02.848Z,9.50
